createdAt,value
2023-02-23T00:00:28.359Z,65.43
2023-02-23T00:03:00.991Z,67.43
2023-02-23T00:05:28.984Z,59.97
2023-02-23T00:07:55.503Z,54.97
2023-02-23T00:10:25.228Z,66.93
2023-02-23T00:12:51.781Z,58.97
2023-02-23T00:15:18.116Z,58.10
2023-02-23T00:17:44.447Z,60.07
2023-02-23T00:20:12.003Z,68.10
2023-02-23T00:22:40.158Z,57.97
2023-02-23T00:25:11.678Z,61.03
2023-02-23T00:27:45.914Z,71.57
2023-02-23T00:30:12.828Z,59.00
2023-02-23T00:32:39.227Z,67.03
2023-02-23T00:35:11.461Z,61.40
2023-02-23T00:37:37.924Z,66.53
2023-02-23T00:40:13.032Z,66.27
2023-02-23T00:42:40.175Z,60.47
2023-02-23T00:45:11.211Z,68.60
2023-02-23T00:47:38.268Z,60.07
2023-02-23T00:50:05.190Z,64.60
2023-02-23T00:52:31.708Z,66.17
2023-02-23T00:54:58.019Z,62.40
2023-02-23T00:57:24.292Z,64.97
2023-02-23T00:59:51.610Z,65.20
2023-02-23T01:02:17.987Z,69.70
2023-02-23T01:04:44.356Z,68.97
2023-02-23T01:07:12.958Z,65.87
2023-02-23T01:09:39.303Z,70.30
2023-02-23T01:12:07.448Z,75.53
2023-02-23T01:14:34.558Z,61.13
2023-02-23T01:17:01.053Z,65.53
2023-02-23T01:19:28.510Z,69.37
2023-02-23T01:21:55.068Z,64.33
2023-02-23T01:24:21.401Z,63.53
2023-02-23T01:26:47.883Z,75.47
2023-02-23T01:29:15.570Z,67.87
2023-02-23T01:31:44.442Z,58.20
2023-02-23T01:34:11.951Z,60.83
2023-02-23T01:36:39.514Z,64.40
2023-02-23T01:39:07.773Z,62.07
2023-02-23T01:41:35.347Z,73.37
2023-02-23T01:44:27.398Z,66.13
2023-02-23T01:46:53.697Z,57.90
2023-02-23T01:49:22.038Z,66.10
2023-02-23T01:51:57.298Z,60.43
2023-02-23T01:54:25.714Z,63.73
2023-02-23T01:56:58.153Z,64.37
2023-02-23T01:59:28.232Z,65.03
2023-02-23T02:01:55.697Z,65.80
2023-02-23T02:04:22.594Z,64.30
2023-02-23T02:06:53.620Z,71.13
2023-02-23T02:09:25.472Z,62.50
2023-02-23T02:11:54.229Z,61.80
2023-02-23T02:14:22.609Z,52.80
2023-02-23T02:16:52.757Z,63.90
2023-02-23T02:19:33.665Z,71.43
2023-02-23T02:22:18.613Z,62.80
2023-02-23T02:24:48.079Z,68.73
2023-02-23T02:27:23.926Z,62.87
2023-02-23T02:30:13.476Z,65.20
2023-02-23T02:32:55.447Z,61.00
2023-02-23T02:35:24.591Z,60.37
2023-02-23T02:37:56.834Z,54.17
2023-02-23T02:40:29.871Z,66.10
2023-02-23T02:42:57.321Z,77.47
2023-02-23T02:45:30.722Z,57.83
2023-02-23T02:48:14.237Z,52.63
2023-02-23T02:50:58.011Z,56.10
2023-02-23T02:53:30.857Z,61.67
2023-02-23T02:56:01.558Z,64.10
2023-02-23T02:58:29.252Z,60.83
2023-02-23T03:01:14.380Z,71.63
2023-02-23T03:04:04.419Z,51.10
2023-02-23T03:06:54.192Z,56.33
2023-02-23T03:09:45.078Z,66.57
2023-02-23T03:12:44.805Z,56.83
2023-02-23T03:15:29.630Z,67.50
2023-02-23T03:18:20.048Z,70.43
2023-02-23T03:21:08.428Z,64.13
2023-02-23T03:23:59.606Z,63.53
2023-02-23T03:26:49.890Z,66.00
2023-02-23T03:29:34.738Z,66.83
2023-02-23T03:32:22.754Z,64.43
2023-02-23T03:35:26.526Z,70.63
2023-02-23T03:38:15.619Z,64.50
2023-02-23T03:41:02.560Z,66.17
2023-02-23T03:43:55.382Z,71.67
2023-02-23T03:46:40.691Z,69.03
2023-02-23T03:49:27.112Z,57.97
2023-02-23T03:52:13.962Z,60.83
2023-02-23T03:55:00.290Z,62.23
2023-02-23T03:57:46.711Z,65.07
2023-02-23T04:00:35.069Z,61.20
2023-02-23T04:03:22.485Z,59.90
2023-02-23T04:06:09.330Z,59.13
2023-02-23T04:08:56.698Z,57.23
2023-02-23T04:11:44.636Z,61.00
2023-02-23T04:14:15.878Z,58.20
2023-02-23T04:16:42.630Z,65.97
2023-02-23T04:19:09.108Z,70.20
2023-02-23T04:21:36.502Z,63.63
2023-02-23T04:24:02.768Z,57.27
2023-02-23T04:26:29.176Z,59.10
2023-02-23T04:28:55.437Z,58.73
2023-02-23T04:31:25.229Z,59.23
2023-02-23T04:33:51.882Z,60.20
2023-02-23T04:36:18.161Z,58.00
2023-02-23T04:38:44.584Z,59.77
2023-02-23T04:41:10.974Z,46.90
2023-02-23T04:43:37.368Z,61.63
2023-02-23T04:46:03.728Z,55.37
2023-02-23T04:48:30.033Z,58.07
2023-02-23T04:50:56.480Z,56.20
2023-02-23T04:53:22.787Z,51.47
2023-02-23T04:55:49.130Z,53.83
2023-02-23T04:58:15.773Z,48.53
2023-02-23T05:00:42.236Z,51.53
2023-02-23T05:03:08.733Z,54.70
2023-02-23T05:05:35.158Z,47.83
2023-02-23T05:08:01.545Z,46.67
2023-02-23T05:10:28.980Z,53.93
2023-02-23T05:12:55.492Z,57.30
2023-02-23T05:15:22.450Z,50.83
2023-02-23T05:17:48.957Z,48.37
2023-02-23T05:20:15.267Z,48.73
2023-02-23T05:22:41.788Z,51.00
2023-02-23T05:25:09.062Z,53.30
2023-02-23T05:27:35.689Z,44.23
2023-02-23T05:30:03.479Z,47.83
2023-02-23T05:32:29.937Z,42.43
2023-02-23T05:34:56.494Z,46.50
2023-02-23T05:37:23.059Z,51.37
2023-02-23T05:39:49.389Z,45.27
2023-02-23T05:42:15.689Z,55.77
2023-02-23T05:44:41.975Z,55.97
2023-02-23T05:47:08.284Z,53.57
2023-02-23T05:49:34.671Z,58.40
2023-02-23T05:52:00.962Z,60.40
2023-02-23T05:54:27.436Z,59.73
2023-02-23T05:56:53.802Z,57.73
2023-02-23T05:59:20.130Z,56.13
2023-02-23T06:01:46.425Z,58.03
2023-02-23T06:04:14.102Z,63.87
2023-02-23T06:06:40.431Z,59.90
2023-02-23T06:09:06.810Z,60.67
2023-02-23T06:11:33.124Z,59.93
2023-02-23T06:14:00.680Z,55.67
2023-02-23T06:16:27.345Z,64.93
2023-02-23T06:18:53.723Z,57.07
2023-02-23T06:21:20.767Z,65.40
2023-02-23T06:23:47.197Z,52.50
2023-02-23T06:26:13.531Z,66.07
2023-02-23T06:28:39.829Z,63.53
2023-02-23T06:31:06.884Z,68.50
2023-02-23T06:33:33.658Z,56.90
2023-02-23T06:35:59.969Z,56.27
2023-02-23T06:38:26.417Z,63.13
2023-02-23T06:40:52.724Z,53.40
2023-02-23T06:43:19.201Z,61.77
2023-02-23T06:45:46.585Z,54.73
2023-02-23T06:48:12.925Z,62.37
2023-02-23T06:50:39.227Z,62.27
2023-02-23T06:53:05.929Z,52.20
2023-02-23T06:55:32.626Z,49.23
2023-02-23T06:57:58.962Z,49.50
2023-02-23T07:00:25.288Z,44.10
2023-02-23T07:02:51.589Z,52.80
2023-02-23T07:05:18.994Z,50.53
2023-02-23T07:07:45.580Z,43.00
2023-02-23T07:10:12.320Z,46.10
2023-02-23T07:12:38.759Z,50.37
2023-02-23T07:15:05.486Z,46.93
2023-02-23T07:17:31.781Z,48.47
2023-02-23T07:19:58.422Z,40.33
2023-02-23T07:22:27.412Z,40.20
2023-02-23T07:24:53.799Z,37.80
2023-02-23T07:27:20.293Z,42.80
2023-02-23T07:29:46.607Z,40.97
2023-02-23T07:32:13.030Z,34.20
2023-02-23T07:34:39.856Z,38.43
2023-02-23T07:37:06.193Z,33.23
2023-02-23T07:39:32.504Z,35.03
2023-02-23T07:41:58.924Z,29.37
2023-02-23T07:44:25.214Z,31.40
2023-02-23T07:46:52.829Z,31.47
2023-02-23T07:49:19.155Z,28.30
2023-02-23T07:51:45.539Z,26.67
2023-02-23T07:54:11.874Z,28.47
2023-02-23T07:56:38.265Z,24.63
2023-02-23T07:59:04.658Z,18.77
2023-02-23T08:01:31.062Z,23.73
2023-02-23T08:03:57.415Z,24.13
2023-02-23T08:06:23.873Z,21.70
2023-02-23T08:08:50.244Z,18.83
2023-02-23T08:11:16.810Z,23.43
2023-02-23T08:13:43.438Z,23.73
2023-02-23T08:16:09.901Z,20.00
2023-02-23T08:18:36.356Z,25.70
2023-02-23T08:21:03.419Z,20.80
2023-02-23T08:23:30.550Z,23.40
2023-02-23T08:25:57.956Z,23.77
2023-02-23T08:28:25.184Z,24.90
2023-02-23T08:30:51.608Z,19.37
2023-02-23T08:33:18.101Z,24.17
2023-02-23T08:35:45.240Z,26.93
2023-02-23T08:38:11.605Z,22.90
2023-02-23T08:40:39.062Z,21.20
2023-02-23T08:43:05.381Z,20.37
2023-02-23T08:45:31.748Z,25.03
2023-02-23T08:47:58.168Z,22.03
2023-02-23T08:50:27.226Z,26.60
2023-02-23T08:52:54.265Z,23.73
2023-02-23T08:55:21.766Z,21.43
2023-02-23T08:57:48.159Z,20.10
2023-02-23T09:00:16.792Z,19.80
2023-02-23T09:02:43.689Z,18.77
2023-02-23T09:05:10.352Z,19.73
2023-02-23T09:07:37.656Z,20.90
2023-02-23T09:10:04.117Z,21.30
2023-02-23T09:12:30.401Z,22.03
2023-02-23T09:14:56.746Z,19.97
2023-02-23T09:17:23.176Z,19.03
2023-02-23T09:19:50.552Z,17.23
2023-02-23T09:22:18.380Z,24.30
2023-02-23T09:24:45.027Z,22.93
2023-02-23T09:27:12.925Z,19.73
2023-02-23T09:29:43.317Z,20.87
2023-02-23T09:32:10.655Z,25.17
2023-02-23T09:34:37.625Z,21.23
2023-02-23T09:37:04.849Z,16.80
2023-02-23T09:39:38.154Z,21.23
2023-02-23T09:42:08.121Z,19.93
2023-02-23T09:44:45.096Z,21.37
2023-02-23T09:47:32.571Z,24.00
2023-02-23T09:50:04.361Z,18.80
2023-02-23T09:52:40.299Z,22.60
2023-02-23T09:55:07.312Z,20.03
2023-02-23T09:57:37.373Z,22.03
2023-02-23T10:00:11.141Z,27.77
2023-02-23T10:02:49.451Z,24.23
2023-02-23T10:05:16.014Z,20.47
2023-02-23T10:07:48.748Z,23.27
2023-02-23T10:10:15.123Z,24.90
2023-02-23T10:12:50.754Z,26.80
2023-02-23T10:15:36.013Z,20.73
2023-02-23T10:18:45.206Z,17.03
2023-02-23T10:21:12.728Z,24.73
2023-02-23T10:23:49.286Z,22.20
2023-02-23T10:26:17.098Z,32.13
2023-02-23T10:28:44.924Z,22.27
2023-02-23T10:31:24.021Z,26.30
2023-02-23T10:33:51.120Z,22.97
2023-02-23T10:36:19.667Z,25.63
2023-02-23T10:38:46.682Z,37.57
2023-02-23T10:41:14.858Z,39.83
2023-02-23T10:43:41.431Z,32.13
2023-02-23T10:46:11.546Z,41.80
2023-02-23T10:48:43.340Z,43.30
2023-02-23T10:51:24.462Z,50.03
2023-02-23T10:53:52.870Z,59.80
2023-02-23T10:56:20.988Z,55.17
2023-02-23T10:58:48.254Z,48.10
2023-02-23T11:01:16.901Z,62.90
2023-02-23T11:03:57.563Z,55.23
2023-02-23T11:06:31.787Z,62.37
2023-02-23T11:08:59.257Z,56.93
2023-02-23T11:11:28.745Z,58.07
2023-02-23T11:13:56.653Z,51.00
2023-02-23T11:16:23.033Z,58.03
2023-02-23T11:18:55.671Z,49.40
2023-02-23T11:21:23.916Z,63.80
2023-02-23T11:23:52.476Z,65.53
2023-02-23T11:26:23.043Z,53.70
2023-02-23T11:28:52.435Z,56.27
2023-02-23T11:31:20.358Z,50.03
2023-02-23T11:33:47.751Z,54.53
2023-02-23T11:36:17.188Z,76.47
2023-02-23T11:38:45.669Z,54.83
2023-02-23T11:41:22.705Z,57.03
2023-02-23T11:43:56.568Z,61.77
2023-02-23T11:46:24.886Z,55.50
2023-02-23T11:49:01.540Z,55.00
2023-02-23T11:51:28.678Z,59.60
2023-02-23T11:53:55.292Z,68.50
2023-02-23T11:56:23.990Z,56.63
2023-02-23T11:58:53.766Z,59.80
2023-02-23T12:01:34.434Z,61.40
2023-02-23T12:04:00.895Z,53.23
2023-02-23T12:06:30.454Z,62.23
2023-02-23T12:09:02.800Z,53.43
2023-02-23T12:11:32.219Z,50.13
2023-02-23T12:13:58.533Z,55.60
2023-02-23T12:16:46.602Z,50.03
2023-02-23T12:19:31.405Z,48.73
2023-02-23T12:22:02.222Z,52.17
2023-02-23T12:24:43.932Z,55.53
2023-02-23T12:27:12.844Z,52.57
2023-02-23T12:29:44.102Z,48.90
2023-02-23T12:32:13.207Z,55.37
2023-02-23T12:34:43.598Z,48.83
2023-02-23T12:37:15.783Z,40.80
2023-02-23T12:39:45.018Z,40.30
2023-02-23T12:42:16.274Z,36.47
2023-02-23T12:44:51.461Z,35.57
2023-02-23T12:47:26.561Z,33.60
2023-02-23T12:50:16.158Z,33.83
2023-02-23T12:53:02.955Z,32.33
2023-02-23T12:55:49.667Z,28.00
2023-02-23T12:58:19.420Z,41.33
2023-02-23T13:00:51.819Z,29.90
2023-02-23T13:03:37.134Z,25.57
2023-02-23T13:06:15.794Z,27.83
2023-02-23T13:09:06.040Z,33.57
2023-02-23T13:11:47.613Z,29.33
2023-02-23T13:14:33.112Z,24.70
2023-02-23T13:17:16.103Z,27.10
2023-02-23T13:19:48.187Z,33.23
2023-02-23T13:22:20.670Z,34.83
2023-02-23T13:24:48.825Z,26.63
2023-02-23T13:27:18.538Z,27.50
2023-02-23T13:29:46.314Z,27.37
2023-02-23T13:32:14.821Z,37.33
2023-02-23T13:34:52.628Z,33.13
2023-02-23T13:37:21.116Z,25.83
2023-02-23T13:39:47.841Z,23.97
2023-02-23T13:42:30.992Z,21.27
2023-02-23T13:45:23.134Z,18.67
2023-02-23T13:47:52.372Z,18.67
2023-02-23T13:50:18.693Z,17.47
2023-02-23T13:52:46.387Z,10.67
2023-02-23T13:55:32.658Z,8.70
2023-02-23T13:58:25.770Z,12.00
2023-02-23T14:01:04.645Z,17.83
2023-02-23T14:03:34.003Z,13.47
2023-02-23T14:06:01.020Z,14.83
2023-02-23T14:08:50.187Z,6.90
2023-02-23T14:11:29.942Z,6.43
2023-02-23T14:14:01.099Z,9.53
2023-02-23T14:16:27.587Z,12.13
2023-02-23T14:18:57.933Z,9.33
2023-02-23T14:21:27.442Z,7.87
2023-02-23T14:24:26.357Z,9.17
2023-02-23T14:27:07.254Z,12.50
2023-02-23T14:29:40.789Z,7.00
2023-02-23T14:32:13.119Z,11.20
2023-02-23T14:34:47.292Z,10.10
2023-02-23T14:37:18.076Z,10.57
2023-02-23T14:39:44.812Z,16.37
2023-02-23T14:42:20.427Z,11.17
2023-02-23T14:44:51.347Z,16.80
2023-02-23T14:47:22.292Z,12.83
2023-02-23T14:49:57.187Z,9.97
2023-02-23T14:52:26.295Z,11.30
2023-02-23T14:55:04.164Z,10.43
2023-02-23T14:57:30.555Z,12.40
2023-02-23T15:00:00.991Z,13.00
2023-02-23T15:02:28.506Z,10.83
2023-02-23T15:04:55.302Z,9.40
2023-02-23T15:07:31.467Z,11.73
2023-02-23T15:09:58.782Z,14.97
2023-02-23T15:12:28.351Z,7.17
2023-02-23T15:15:00.058Z,13.60
2023-02-23T15:17:30.658Z,9.07
2023-02-23T15:20:16.293Z,14.53
2023-02-23T15:22:46.763Z,10.70
2023-02-23T15:25:27.941Z,16.77
2023-02-23T15:27:55.975Z,10.77
2023-02-23T15:30:33.006Z,14.63
2023-02-23T15:33:02.539Z,19.47
2023-02-23T15:35:30.130Z,9.67
2023-02-23T15:38:11.103Z,14.13
2023-02-23T15:40:44.405Z,22.23
2023-02-23T15:43:11.617Z,7.83
2023-02-23T15:45:46.623Z,16.13
2023-02-23T15:48:18.514Z,18.63
2023-02-23T15:50:50.126Z,19.57
2023-02-23T15:53:27.416Z,18.30
2023-02-23T15:55:55.329Z,12.87
2023-02-23T15:58:24.239Z,18.33
2023-02-23T16:00:54.734Z,16.07
2023-02-23T16:03:31.752Z,22.27
2023-02-23T16:06:03.404Z,20.40
2023-02-23T16:08:30.290Z,17.40
2023-02-23T16:11:22.908Z,19.13
2023-02-23T16:13:50.523Z,17.83
2023-02-23T16:16:20.207Z,23.60
2023-02-23T16:18:50.960Z,26.80
2023-02-23T16:21:21.454Z,22.17
2023-02-23T16:23:49.362Z,22.70
2023-02-23T16:26:15.686Z,22.33
2023-02-23T16:28:43.386Z,18.50
2023-02-23T16:31:13.851Z,22.27
2023-02-23T16:33:52.118Z,18.37
2023-02-23T16:36:22.298Z,22.80
2023-02-23T16:38:52.862Z,24.63
2023-02-23T16:41:20.451Z,17.50
2023-02-23T16:43:50.413Z,15.93
2023-02-23T16:46:17.474Z,23.43
2023-02-23T16:48:44.353Z,17.17
2023-02-23T16:51:14.099Z,19.60
2023-02-23T16:53:40.945Z,19.70
2023-02-23T16:56:12.454Z,12.83
2023-02-23T16:58:43.996Z,16.90
2023-02-23T17:01:18.041Z,16.47
2023-02-23T17:03:52.686Z,15.90
2023-02-23T17:06:19.944Z,21.10
2023-02-23T17:08:56.219Z,21.73
2023-02-23T17:11:24.340Z,19.17
2023-02-23T17:13:52.747Z,18.10
2023-02-23T17:16:19.682Z,24.50
2023-02-23T17:18:46.340Z,19.70
2023-02-23T17:21:13.510Z,17.40
2023-02-23T17:23:48.190Z,12.53
2023-02-23T17:26:14.997Z,16.30
2023-02-23T17:28:41.405Z,10.00
2023-02-23T17:31:08.270Z,15.63
2023-02-23T17:33:36.463Z,15.47
2023-02-23T17:36:04.459Z,17.83
2023-02-23T17:38:34.486Z,15.53
2023-02-23T17:41:12.095Z,15.23
2023-02-23T17:43:38.525Z,15.43
2023-02-23T17:46:05.063Z,14.33
2023-02-23T17:48:34.668Z,14.57
2023-02-23T17:51:05.351Z,14.97
2023-02-23T17:53:32.162Z,9.87
2023-02-23T17:55:59.554Z,11.73
2023-02-23T17:58:26.332Z,12.83
2023-02-23T18:00:57.561Z,8.17
2023-02-23T18:03:24.618Z,11.57
2023-02-23T18:05:52.784Z,9.47
2023-02-23T18:08:20.156Z,10.00
2023-02-23T18:10:53.457Z,14.00
2023-02-23T18:13:19.848Z,17.37
2023-02-23T18:15:53.724Z,13.30
2023-02-23T18:18:21.020Z,16.50
2023-02-23T18:21:09.519Z,8.37
2023-02-23T18:23:35.976Z,4.47
2023-02-23T18:26:07.488Z,14.97
2023-02-23T18:28:34.710Z,4.67
2023-02-23T18:31:01.991Z,16.03
2023-02-23T18:33:28.394Z,10.73
2023-02-23T18:35:54.727Z,12.60
2023-02-23T18:38:21.102Z,11.07
2023-02-23T18:40:47.775Z,12.97
2023-02-23T18:43:14.389Z,9.07
2023-02-23T18:45:40.894Z,7.67
2023-02-23T18:48:13.463Z,10.03
2023-02-23T18:50:40.183Z,4.30
2023-02-23T18:53:08.921Z,6.33
2023-02-23T18:55:36.381Z,16.43
2023-02-23T18:58:03.276Z,9.03
2023-02-23T19:00:33.689Z,16.77
2023-02-23T19:03:00.049Z,8.93
2023-02-23T19:05:26.559Z,6.63
2023-02-23T19:07:54.592Z,9.00
2023-02-23T19:10:21.014Z,9.57
2023-02-23T19:12:47.366Z,14.43
2023-02-23T19:15:13.839Z,5.67
2023-02-23T19:17:40.510Z,12.53
2023-02-23T19:20:13.729Z,6.87
2023-02-23T19:22:41.014Z,7.73
2023-02-23T19:25:11.734Z,7.13
2023-02-23T19:27:39.841Z,11.67
2023-02-23T19:30:09.803Z,6.37
2023-02-23T19:32:40.029Z,9.17
2023-02-23T19:35:08.508Z,14.03
2023-02-23T19:37:34.906Z,8.30
2023-02-23T19:40:03.592Z,9.73
2023-02-23T19:42:32.541Z,9.47
2023-02-23T19:44:59.583Z,9.40
2023-02-23T19:47:25.893Z,10.90
2023-02-23T19:49:52.295Z,16.00
2023-02-23T19:52:18.561Z,9.13
2023-02-23T19:54:45.164Z,11.23
2023-02-23T19:57:11.506Z,10.37
2023-02-23T19:59:38.046Z,9.80
2023-02-23T20:02:04.381Z,7.20
2023-02-23T20:04:32.835Z,9.73
2023-02-23T20:06:59.209Z,5.33
2023-02-23T20:09:25.545Z,5.37
2023-02-23T20:11:55.484Z,13.13
2023-02-23T20:14:23.730Z,10.83
2023-02-23T20:16:50.131Z,11.60
2023-02-23T20:19:17.459Z,9.50
2023-02-23T20:21:45.932Z,11.43
2023-02-23T20:24:12.934Z,11.33
2023-02-23T20:26:39.306Z,9.73
2023-02-23T20:29:10.855Z,8.90
2023-02-23T20:31:38.385Z,10.33
2023-02-23T20:34:06.132Z,8.07
2023-02-23T20:36:32.486Z,13.13
2023-02-23T20:38:58.912Z,5.77
2023-02-23T20:41:28.012Z,7.77
2023-02-23T20:43:54.854Z,14.30
2023-02-23T20:46:21.226Z,16.83
2023-02-23T20:48:49.085Z,14.50
2023-02-23T20:51:18.844Z,9.63
2023-02-23T20:53:46.675Z,12.97
2023-02-23T20:56:14.172Z,17.20
2023-02-23T20:58:40.494Z,11.40
2023-02-23T21:01:23.149Z,11.73
2023-02-23T21:03:51.428Z,17.67
2023-02-23T21:06:19.903Z,9.63
2023-02-23T21:08:48.945Z,15.33
2023-02-23T21:11:19.787Z,9.40
2023-02-23T21:13:46.416Z,17.50
2023-02-23T21:16:14.752Z,10.67
2023-02-23T21:18:42.349Z,16.53
2023-02-23T21:21:13.852Z,11.53
2023-02-23T21:23:43.286Z,15.33
2023-02-23T21:26:21.497Z,13.07
2023-02-23T21:28:48.366Z,14.77
2023-02-23T21:31:15.045Z,9.67
2023-02-23T21:33:42.205Z,13.10
2023-02-23T21:36:12.484Z,12.90
2023-02-23T21:38:40.115Z,12.63
2023-02-23T21:41:06.888Z,11.87
2023-02-23T21:43:36.856Z,14.27
2023-02-23T21:46:22.925Z,11.73
2023-02-23T21:48:49.360Z,10.93
2023-02-23T21:51:16.093Z,13.07
2023-02-23T21:53:43.152Z,12.07
2023-02-23T21:56:11.849Z,11.23
2023-02-23T21:58:39.348Z,12.23
2023-02-23T22:01:16.158Z,7.20
2023-02-23T22:03:45.103Z,10.27
2023-02-23T22:06:15.533Z,9.43
2023-02-23T22:08:50.221Z,9.83
2023-02-23T22:11:21.852Z,7.03
2023-02-23T22:13:49.664Z,5.03
2023-02-23T22:16:17.748Z,4.20
2023-02-23T22:18:44.251Z,6.60
2023-02-23T22:21:13.542Z,5.63
2023-02-23T22:23:40.429Z,6.37
2023-02-23T22:26:07.990Z,4.37
2023-02-23T22:28:34.380Z,6.10
2023-02-23T22:31:07.425Z,10.50
2023-02-23T22:33:34.355Z,9.00
2023-02-23T22:36:01.681Z,11.37
2023-02-23T22:38:28.071Z,5.53
2023-02-23T22:40:55.261Z,8.73
2023-02-23T22:43:22.082Z,5.63
2023-02-23T22:45:53.105Z,8.43
2023-02-23T22:48:19.400Z,7.40
2023-02-23T22:50:45.685Z,3.97
2023-02-23T22:53:12.007Z,11.57
2023-02-23T22:55:38.324Z,2.90
2023-02-23T22:58:08.382Z,7.60
2023-02-23T23:00:34.974Z,6.20
2023-02-23T23:03:05.573Z,7.57
2023-02-23T23:05:32.825Z,13.30
2023-02-23T23:07:59.502Z,8.30
2023-02-23T23:10:25.908Z,13.13
2023-02-23T23:12:52.285Z,13.60
2023-02-23T23:15:19.970Z,9.83
2023-02-23T23:17:48.344Z,10.70
2023-02-23T23:20:16.342Z,7.77
2023-02-23T23:22:42.676Z,7.33
2023-02-23T23:25:14.585Z,6.87
2023-02-23T23:27:41.887Z,8.13
2023-02-23T23:30:12.343Z,8.13
2023-02-23T23:32:42.133Z,5.53
2023-02-23T23:35:11.130Z,7.03
2023-02-23T23:37:39.811Z,8.00
2023-02-23T23:40:14.092Z,4.13
2023-02-23T23:42:42.213Z,5.57
2023-02-23T23:45:09.695Z,2.00
2023-02-23T23:47:36.091Z,6.23
2023-02-23T23:50:02.976Z,10.00
2023-02-23T23:52:31.104Z,8.07
2023-02-23T23:54:58.805Z,4.27
2023-02-23T23:57:26.002Z,9.47
2023-02-23T23:59:52.335Z,6.50
